Greenacres, Washington
Current Conditions -  °F | °C
As of 10:53 AM on Tuesday 21 Oct 2014 (Local Time) from KSFF Reporting Station
Overcast Overcast  
Wind Chill: 11°   Ceiling: 1700
Heat Index: 11°   Visibility: 10mi
Dew Point:   Wind: 12mph
Humidity: 77%   Direction: 220°SW
Pressure: 29.92"   Gusts: NA
Location:  47.67°N, 117.16°W
Report Text: KSFF 211753Z 22010KT 10SM OVC017 11/07 A2992 RMK AO2 SLP131 T01060067 10111 20100 51013
Loading
Personal Weather Stations






























Interactive Weather Map
Tropical Storm Tracking
New forecast layout! Learn more

10-Day Weather Forecast

Advertisements
Track Severe Weather on mobile